Impacts METAR Board
IDs:

KEFD - Houston/Ellington Ar, TX, US

Updated at: 1300 UTC 13 Dec 2019
Potential Impact None Slight Moderate High
Time 13/01Z 13/02Z 13/03Z 13/04Z 13/05Z 13/06Z 13/07Z 13/08Z 13/09Z 13/10Z 13/11Z 13/12Z 13/13Z
Temp57 55 55 55 55 54 55 55 57 57 57 57
Dewpt48 50 50 48 52 50 50 52 54 54 54 55
Altim30.11 30.11 30.11 30.10 30.08 30.06 30.05 30.04 30.01 29.98 29.96 29.96
VIS10 10 10 10 10 10 10 10 10 10 10 10
CIG-- -- 30 30 30 250 20 40 40 40 35 25
CoverSCTSCTBKNOVCBKNBKNBKNOVCBKNBKNBKNBKN
FltCatVFRVFRMVFRMVFRMVFRVFRMVFRVFRVFRVFRVFRMVFR
WX------------------------
WDir000140015000015000
WSpd0 0 0 3 0 3 0 0 0 3 0 0
WGst-- -- -- -- -- -- -- -- -- -- -- --
Raw hourly METARs
KEFD 130050Z 00000KT 10SM SCT120 14/09 A3011
KEFD 130150Z 00000KT 10SM SCT030 SCT250 13/10 A3011
KEFD 130250Z 00000KT 10SM BKN030 BKN250 13/10 A3011
KEFD 130350Z 14003KT 10SM BKN030 OVC040 13/09 A3010
KEFD 130450Z 00000KT 10SM BKN030 13/11 A3008
KEFD 130550Z 15003KT 10SM SCT020 BKN250 12/10 A3006
KEFD 130650Z 00000KT 10SM BKN020 BKN250 13/10 A3005
KEFD 130750Z 00000KT 10SM OVC040 13/11 A3004
KEFD 130850Z 00000KT 10SM BKN040 14/12 A3001
KEFD 130950Z 15003KT 10SM BKN040 14/12 A2998
KEFD 131050Z 00000KT 10SM BKN035 14/12 A2996
KEFD 131150Z 00000KT 10SM BKN025 14/13 A2996




Page loaded:  13:53 UTC  |   05:53 AM Pacific  |   06:53 AM Mountain  |   07:53 AM Central  |   08:53 AM Eastern

 

ADVISORIES

FORECASTS

FORECASTS

OBSERVATIONS

USER TOOLS

ABOUT US